Time;durP1;ratioP1;P1;durP2;ratioP2;P2;SDS_P1;SDS_P2;PMS_P1;PMS_P2;Temp;Humidity;BMP_temperature;BMP_pressure;BME280_temperature;BME280_humidity;BME280_pressure;Samples;Min_cycle;Max_cycle;Signal;HPM_P1;HPM_P2
2023/12/24 10:12:19;;;;;;;1.00;0.88;;;6.80;99.90;;;;;;7599467;19;21252;-72
2023/12/24 10:14:59;;;;;;;0.80;0.63;;;6.80;99.90;;;;;;7608194;19;20021;-72
2023/12/24 10:17:35;;;;;;;2.50;0.77;;;6.90;99.90;;;;;;7572013;19;20441;-73
2023/12/24 10:20:09;;;;;;;1.65;0.98;;;6.90;99.90;;;;;;7589094;19;20010;-72
2023/12/24 10:22:43;;;;;;;1.10;0.88;;;7.10;99.90;;;;;;7596919;19;20018;-72
2023/12/24 10:25:17;;;;;;;1.85;1.20;;;7.20;99.90;;;;;;7598127;19;20424;-72
2023/12/24 10:27:50;;;;;;;0.60;0.60;;;;;;;;;;7575209;19;20526;-71
2023/12/24 10:30:23;;;;;;;3.53;0.98;;;;;;;;;;7564569;19;20025;-71
2023/12/24 10:33:07;;;;;;;0.60;0.60;;;;;;;;;;7587392;19;20028;-72
2023/12/24 10:35:40;;;;;;;0.60;0.50;;;;;;;;;;7603791;19;20936;-73
2023/12/24 10:38:16;;;;;;;1.13;0.73;;;;;;;;;;7598862;19;20050;-72
2023/12/24 10:40:49;;;;;;;3.55;0.68;;;;;;;;;;7590497;19;20709;-73
2023/12/24 10:43:23;;;;;;;0.85;0.60;;;;;;;;;;7593040;19;20018;-74
2023/12/24 10:45:56;;;;;;;1.55;0.68;;;;;;;;;;7560824;19;20026;-75
2023/12/24 10:48:30;;;;;;;0.77;0.47;;;;;;;;;;7567396;19;20019;-75
2023/12/24 10:51:03;;;;;;;1.05;0.60;;;;;;;;;;7610838;19;20018;-76
2023/12/24 10:53:43;;;;;;;0.65;0.65;;;;;;;;;;7606523;19;20687;-75
2023/12/24 10:56:24;;;;;;;0.77;0.57;;;;;;;;;;7590482;19;20028;-74
2023/12/24 10:59:03;;;;;;;2.30;0.60;;;;;;;;;;7575345;19;20019;-75
2023/12/24 11:01:36;;;;;;;0.80;0.30;;;;;;;;;;7575330;19;21480;-74
2023/12/24 11:04:09;;;;;;;0.60;0.50;;;;;;;;;;7583937;19;20026;-74
2023/12/24 11:06:43;;;;;;;0.88;0.65;;;;;;;;;;7549007;19;20011;-73
2023/12/24 11:09:23;;;;;;;0.47;0.40;;;;;;;;;;7564576;19;20098;-75
2023/12/24 11:11:56;;;;;;;0.50;0.40;;;;;;;;;;7621275;19;20014;-76
2023/12/24 11:14:41;;;;;;;0.80;0.65;;;;;;;;;;7623057;19;20029;-74
2023/12/24 11:17:33;;;;;;;0.68;0.43;;;;;;;;;;7613710;19;20014;-75
2023/12/24 11:20:19;;;;;;;0.70;0.50;;;;;;;;;;7601203;19;20832;-74
2023/12/24 11:23:04;;;;;;;0.63;0.40;;;;;;;;;;7588987;19;20014;-73
2023/12/24 11:25:38;;;;;;;0.45;0.40;;;;;;;;;;7547879;19;21962;-74
2023/12/24 11:28:35;;;;;;;0.57;0.50;;;7.50;99.90;;;;;;7564873;19;20022;-73
2023/12/24 11:31:08;;;;;;;1.65;0.40;;;9.60;99.90;;;;;;7558082;19;20033;-74
2023/12/24 11:33:54;;;;;;;2.00;0.77;;;9.50;99.90;;;;;;7573208;19;20022;-74
2023/12/24 11:36:28;;;;;;;1.10;0.80;;;9.40;99.90;;;;;;7595508;19;20936;-74
2023/12/24 11:39:01;;;;;;;2.50;0.50;;;9.20;99.90;;;;;;7589805;19;20021;-74
2023/12/24 11:41:37;;;;;;;1.05;0.60;;;9.10;99.90;;;;;;7578223;19;20026;-73
2023/12/24 11:44:09;;;;;;;2.80;0.73;;;9.10;99.90;;;;;;7583580;19;20023;-73
2023/12/24 11:46:42;;;;;;;0.98;0.60;;;9.00;99.90;;;;;;7555577;19;20288;-72
2023/12/24 11:49:19;;;;;;;0.50;0.40;;;9.00;99.90;;;;;;7599027;19;20017;-74
2023/12/24 11:51:51;;;;;;;0.40;0.30;;;8.90;99.90;;;;;;7575055;19;20290;-74
2023/12/24 11:54:24;;;;;;;0.98;0.70;;;8.90;99.90;;;;;;7590487;19;20887;-74
2023/12/24 11:56:57;;;;;;;0.55;0.55;;;8.90;99.90;;;;;;7598503;19;20881;-75
2023/12/24 11:59:30;;;;;;;0.80;0.40;;;8.90;99.90;;;;;;7576261;19;20021;-75
2023/12/24 12:02:03;;;;;;;1.10;0.73;;;8.80;99.90;;;;;;7585778;19;20007;-74
2023/12/24 12:04:37;;;;;;;0.82;0.63;;;8.80;99.90;;;;;;7580592;19;20015;-74
2023/12/24 12:07:09;;;;;;;1.03;0.70;;;8.80;99.90;;;;;;7579502;19;20652;-73
2023/12/24 12:09:42;;;;;;;2.60;0.85;;;8.80;99.90;;;;;;7573977;19;20010;-74
2023/12/24 12:12:14;;;;;;;1.85;0.60;;;8.80;99.90;;;;;;7575231;19;20923;-74
2023/12/24 12:14:47;;;;;;;1.10;0.70;;;8.80;99.90;;;;;;7592551;19;20595;-74
2023/12/24 12:17:19;;;;;;;3.93;0.80;;;8.70;99.90;;;;;;7592575;19;20010;-75
2023/12/24 12:19:52;;;;;;;0.82;0.50;;;8.70;99.90;;;;;;7557167;19;20950;-74
2023/12/24 12:22:25;;;;;;;1.00;0.70;;;8.70;99.90;;;;;;7546279;19;20018;-73
2023/12/24 12:24:57;;;;;;;3.53;1.90;;;8.70;99.90;;;;;;7538795;19;20026;-75
2023/12/24 12:27:30;;;;;;;1.15;0.70;;;8.70;99.90;;;;;;7557453;19;20501;-74
2023/12/24 12:30:03;;;;;;;2.90;1.65;;;;;;;;;;7579420;19;20604;-75
2023/12/24 12:32:36;;;;;;;2.22;1.27;;;;;;;;;;7571488;19;20113;-75
2023/12/24 12:35:10;;;;;;;11.90;5.55;;;;;;;;;;7549091;19;21144;-73
2023/12/24 12:37:44;;;;;;;3.75;1.52;;;;;;;;;;7588209;19;20059;-74
2023/12/24 12:40:17;;;;;;;2.55;1.25;;;;;;;;;;7539594;19;20019;-75
2023/12/24 12:42:54;;;;;;;1.30;0.80;;;;;;;;;;7507555;19;20355;-75
2023/12/24 12:45:27;;;;;;;2.78;2.28;;;;;;;;;;7568987;19;20046;-74
2023/12/24 12:48:00;;;;;;;2.70;1.40;;;;;;;;;;7581338;19;20444;-74
2023/12/24 12:50:34;;;;;;;2.17;1.38;;;;;;;;;;7586305;19;20014;-76
2023/12/24 12:53:07;;;;;;;4.30;2.63;;;;;;;;;;7613629;19;20010;-75
2023/12/24 12:55:42;;;;;;;0.80;0.70;;;;;;;;;;7619556;19;20013;-76
2023/12/24 12:58:15;;;;;;;1.05;0.60;;;;;;;;;;7607176;19;20323;-75
2023/12/24 13:00:48;;;;;;;0.73;0.57;;;;;;;;;;7615303;19;20023;-77
2023/12/24 13:03:21;;;;;;;1.80;0.80;;;;;;;;;;7592085;19;20015;-77
2023/12/24 13:05:57;;;;;;;1.58;1.00;;;;;;;;;;7590674;19;20024;-76
2023/12/24 13:08:32;;;;;;;1.40;1.30;;;;;;;;;;7585054;19;20014;-76
2023/12/24 13:11:07;;;;;;;2.05;1.10;;;;;;;;;;7572414;19;20018;-77
2023/12/24 13:13:40;;;;;;;0.88;0.80;;;;;;;;;;7568716;19;20007;-76
2023/12/24 13:16:13;;;;;;;0.93;0.80;;;;;;;;;;7590376;19;20018;-77
2023/12/24 13:18:46;;;;;;;2.45;1.83;;;;;;;;;;7614962;19;20014;-76
2023/12/24 13:21:19;;;;;;;1.45;0.90;;;;;;;;;;7616831;19;20014;-77
2023/12/24 13:23:52;;;;;;;2.45;1.00;;;;;;;;;;7606101;19;20022;-78
2023/12/24 13:26:25;;;;;;;2.05;1.20;;;;;;;;;;7609062;19;20040;-77
2023/12/24 13:28:58;;;;;;;2.13;1.10;;;;;;;;;;7602318;19;22585;-78
2023/12/24 13:31:31;;;;;;;2.40;1.57;;;;;;;;;;7608169;19;20015;-74
2023/12/24 13:34:04;;;;;;;2.33;1.40;;;;;;;;;;7600904;19;20014;-73
2023/12/24 13:36:37;;;;;;;1.20;1.08;;;;;;;;;;7560176;19;20015;-77
2023/12/24 13:39:10;;;;;;;2.30;1.60;;;;;;;;;;7576056;19;20018;-76
2023/12/24 13:41:43;;;;;;;3.13;1.92;;;;;;;;;;7572665;19;20034;-74
2023/12/24 13:44:17;;;;;;;2.38;1.50;;;;;;;;;;7556970;19;20010;-76
2023/12/24 13:46:51;;;;;;;4.03;2.17;;;;;;;;;;7556552;19;20006;-74
2023/12/24 13:49:27;;;;;;;5.82;1.10;;;10.80;99.90;;;;;;7549102;19;20416;-76
2023/12/24 13:52:03;;;;;;;5.75;3.83;;;10.70;99.90;;;;;;7561576;19;20056;-76
2023/12/24 13:54:36;;;;;;;1.50;1.20;;;10.70;99.90;;;;;;7564689;19;20356;-75
2023/12/24 13:57:09;;;;;;;1.58;1.15;;;10.80;99.90;;;;;;7573337;19;20500;-75
2023/12/24 13:59:44;;;;;;;2.22;1.25;;;10.80;99.90;;;;;;7564820;19;20134;-76
2023/12/24 14:02:16;;;;;;;1.92;1.40;;;10.80;99.90;;;;;;7561311;19;20019;-75
2023/12/24 14:04:49;;;;;;;2.72;0.80;;;10.90;99.90;;;;;;7557383;19;20117;-75
2023/12/24 14:07:23;;;;;;;1.30;0.77;;;10.90;99.90;;;;;;7554327;19;20886;-76
2023/12/24 14:10:03;;;;;;;4.10;0.90;;;10.80;99.90;;;;;;7574026;19;20023;-75
2023/12/24 14:12:36;;;;;;;1.20;0.90;;;10.90;99.90;;;;;;7565588;19;20015;-76
2023/12/24 14:15:09;;;;;;;2.65;1.05;;;11.00;99.90;;;;;;7591341;19;20090;-75
2023/12/24 14:17:43;;;;;;;0.85;0.75;;;11.00;99.90;;;;;;7595859;19;20017;-77
2023/12/24 14:20:16;;;;;;;1.35;1.02;;;11.10;99.90;;;;;;7594624;19;20019;-75
2023/12/24 14:22:49;;;;;;;1.73;0.80;;;11.20;99.90;;;;;;7573505;19;20025;-76
2023/12/24 14:25:22;;;;;;;1.02;0.63;;;11.20;99.90;;;;;;7552137;19;20014;-76
2023/12/24 14:27:56;;;;;;;6.18;0.68;;;11.00;99.90;;;;;;7551051;19;20085;-75
2023/12/24 14:30:30;;;;;;;0.80;0.60;;;11.10;99.90;;;;;;7549536;19;20014;-76
2023/12/24 14:33:03;;;;;;;1.58;0.80;;;11.10;99.90;;;;;;7560522;19;20025;-76
2023/12/24 14:35:36;;;;;;;1.23;0.90;;;11.20;99.90;;;;;;7579604;19;20030;-76
2023/12/24 14:38:10;;;;;;;0.67;0.50;;;11.10;99.90;;;;;;7568192;19;20782;-75
2023/12/24 14:40:43;;;;;;;3.40;0.57;;;11.10;99.90;;;;;;7564203;19;20011;-75
2023/12/24 14:43:16;;;;;;;;;;;11.10;99.90;;;;;;7568277;19;21031;-77
2023/12/24 14:45:49;;;;;;;2.20;1.20;;;11.10;99.90;;;;;;7553025;19;19921;-77
2023/12/24 14:48:21;;;;;;;1.40;0.88;;;11.20;99.90;;;;;;7569418;19;20031;-77
2023/12/24 14:50:55;;;;;;;4.23;1.10;;;;;;;;;;7550429;19;20027;-76
2023/12/24 14:53:28;;;;;;;0.50;0.50;;;;;;;;;;7569195;19;20644;-76
2023/12/24 14:56:01;;;;;;;1.35;0.77;;;;;;;;;;7550963;19;20756;-77
2023/12/24 14:58:34;;;;;;;3.60;0.50;;;;;;;;;;7560826;19;20025;-76
2023/12/24 15:01:11;;;;;;;0.80;0.52;;;;;;;;;;7036061;19;9999834;-75
2023/12/24 15:03:44;;;;;;;1.08;0.63;;;;;;;;;;7568383;19;20107;-76
2023/12/24 15:06:18;;;;;;;0.60;0.50;;;11.10;99.90;;;;;;7572465;19;20882;-77
2023/12/24 15:08:51;;;;;;;;;;;11.40;99.90;;;;;;7581132;19;20503;-77
2023/12/24 15:11:25;;;;;;;1.33;0.68;;;11.40;99.90;;;;;;7571169;19;19925;-76
2023/12/24 15:13:58;;;;;;;2.38;0.70;;;11.40;99.90;;;;;;7577874;19;22400;-76
2023/12/24 15:16:30;;;;;;;5.50;1.57;;;11.30;99.90;;;;;;7593115;19;20048;-76
2023/12/24 15:19:03;;;;;;;2.17;0.75;;;11.30;99.90;;;;;;7585378;19;20042;-76
2023/12/24 15:21:36;;;;;;;;;;;11.30;99.90;;;;;;7571168;19;20014;-75
2023/12/24 15:24:11;;;;;;;1.17;0.55;;;11.20;99.90;;;;;;7569634;19;20609;-77
2023/12/24 15:26:43;;;;;;;1.48;0.80;;;11.10;99.90;;;;;;7575950;19;20042;-77
2023/12/24 15:29:17;;;;;;;0.57;0.50;;;11.10;99.90;;;;;;7572812;19;20035;-78
2023/12/24 15:31:50;;;;;;;1.50;0.60;;;11.00;99.90;;;;;;7565615;19;20014;-76
2023/12/24 15:34:23;;;;;;;1.45;0.63;;;11.00;99.90;;;;;;7576459;19;20108;-76
2023/12/24 15:36:56;;;;;;;5.90;0.60;;;11.00;99.90;;;;;;7564314;19;20043;-75
2023/12/24 15:39:28;;;;;;;0.50;0.50;;;10.90;99.90;;;;;;7570287;19;20018;-76
2023/12/24 15:42:02;;;;;;;0.60;0.50;;;10.90;99.90;;;;;;7553342;19;20462;-75
2023/12/24 15:44:35;;;;;;;0.80;0.57;;;10.80;99.90;;;;;;7536371;19;20063;-76
2023/12/24 15:47:07;;;;;;;1.02;0.80;;;10.80;99.90;;;;;;7572851;19;20044;-76
2023/12/24 15:49:43;;;;;;;0.50;0.50;;;10.80;99.90;;;;;;7564041;19;20020;-75
2023/12/24 15:52:20;;;;;;;1.23;0.90;;;10.80;99.90;;;;;;7581236;19;20938;-76
2023/12/24 15:54:53;;;;;;;1.20;0.70;;;10.70;99.90;;;;;;7572019;19;20029;-77
2023/12/24 15:57:26;;;;;;;1.70;0.80;;;10.60;99.90;;;;;;7568277;19;20023;-77
2023/12/24 15:59:59;;;;;;;2.38;0.70;;;10.60;99.90;;;;;;7556525;19;20010;-76
2023/12/24 16:02:31;;;;;;;0.63;0.50;;;10.50;99.90;;;;;;7553437;19;20090;-75
2023/12/24 16:05:09;;;;;;;1.50;0.80;;;10.50;99.90;;;;;;7559028;19;20025;-76
2023/12/24 16:07:41;;;;;;;0.90;0.60;;;10.70;99.90;;;;;;7584221;19;21151;-75
2023/12/24 16:10:14;;;;;;;2.15;0.70;;;10.50;99.90;;;;;;7578742;19;24376;-76
2023/12/24 16:12:46;;;;;;;0.50;0.50;;;10.70;99.90;;;;;;7546872;19;22476;-76
2023/12/24 16:15:18;;;;;;;1.58;0.50;;;10.70;99.90;;;;;;7564195;19;20018;-75
2023/12/24 16:17:51;;;;;;;1.48;0.60;;;10.80;99.90;;;;;;7561254;19;20372;-77
2023/12/24 16:20:23;;;;;;;3.08;0.88;;;10.90;99.90;;;;;;7573972;19;20014;-76
2023/12/24 16:22:56;;;;;;;1.70;0.95;;;10.90;99.90;;;;;;7579518;19;20024;-77
2023/12/24 16:25:29;;;;;;;1.43;0.80;;;10.70;99.90;;;;;;7553998;19;20282;-77
2023/12/24 16:28:01;;;;;;;0.95;0.70;;;10.70;99.90;;;;;;7555777;19;20378;-76
2023/12/24 16:30:34;;;;;;;1.63;1.08;;;10.80;99.90;;;;;;7579682;19;20715;-76
2023/12/24 16:33:06;;;;;;;1.17;0.60;;;10.90;99.90;;;;;;7569828;19;20988;-74
2023/12/24 16:35:39;;;;;;;1.90;0.60;;;10.90;99.90;;;;;;7575349;19;20022;-76
2023/12/24 16:38:11;;;;;;;1.35;0.80;;;10.90;99.90;;;;;;7562626;19;20973;-76
2023/12/24 16:40:45;;;;;;;2.35;0.82;;;10.90;99.90;;;;;;7549073;19;20048;-74
2023/12/24 16:43:18;;;;;;;0.98;0.60;;;10.90;99.90;;;;;;7570240;19;20177;-75
2023/12/24 16:45:50;;;;;;;0.70;0.50;;;10.90;99.90;;;;;;7572653;19;20029;-75
2023/12/24 16:48:23;;;;;;;0.68;0.65;;;10.90;99.90;;;;;;7569075;19;20117;-75
2023/12/24 16:50:56;;;;;;;0.90;0.53;;;11.00;99.90;;;;;;7572773;19;20117;-74
2023/12/24 16:53:28;;;;;;;5.43;2.30;;;11.10;99.90;;;;;;7569422;19;20306;-75
2023/12/24 16:56:02;;;;;;;0.90;0.50;;;11.10;99.90;;;;;;7567051;19;20607;-76
2023/12/24 16:58:34;;;;;;;0.52;0.45;;;11.20;99.90;;;;;;7576567;19;20743;-75
2023/12/24 17:01:08;;;;;;;3.97;0.80;;;11.10;99.90;;;;;;7557996;19;20742;-77
2023/12/24 17:03:41;;;;;;;2.05;0.80;;;11.10;99.90;;;;;;7558801;19;20097;-76
2023/12/24 17:06:13;;;;;;;1.50;0.90;;;11.00;99.90;;;;;;7582063;19;20026;-78
2023/12/24 17:08:46;;;;;;;3.53;0.90;;;11.10;99.90;;;;;;7555298;19;20089;-74
2023/12/24 17:11:18;;;;;;;1.25;0.85;;;11.00;99.90;;;;;;7566031;19;20098;-77
2023/12/24 17:13:50;;;;;;;1.40;0.88;;;10.70;99.90;;;;;;7573095;19;20015;-77
2023/12/24 17:16:26;;;;;;;2.10;0.90;;;10.30;99.90;;;;;;7556668;19;20029;-76
2023/12/24 17:18:58;;;;;;;2.90;1.10;;;9.90;99.90;;;;;;7588326;19;20276;-77
2023/12/24 17:21:30;;;;;;;2.92;1.67;;;9.70;99.90;;;;;;7583620;19;20007;-76
2023/12/24 17:24:03;;;;;;;3.17;1.35;;;9.60;99.90;;;;;;7580459;19;20039;-77
2023/12/24 17:26:41;;;;;;;3.92;1.92;;;9.40;99.90;;;;;;7563128;19;20022;-77
2023/12/24 17:29:13;;;;;;;2.78;1.77;;;9.20;99.90;;;;;;7550307;19;20019;-76
2023/12/24 17:31:45;;;;;;;3.05;1.77;;;9.10;99.90;;;;;;7576852;19;20014;-76
2023/12/24 17:34:18;;;;;;;2.15;1.20;;;9.00;99.90;;;;;;7559805;19;20061;-76
2023/12/24 17:36:50;;;;;;;4.25;2.38;;;9.00;99.90;;;;;;7569652;19;20022;-76
2023/12/24 17:39:23;;;;;;;3.35;1.80;;;9.00;99.90;;;;;;7561037;19;20014;-77
2023/12/24 17:41:55;;;;;;;4.28;2.00;;;9.00;99.90;;;;;;7554718;19;20052;-77
2023/12/24 17:44:28;;;;;;;3.75;2.03;;;9.00;99.90;;;;;;6007700;19;10000009;-73
2023/12/24 17:47:00;;;;;;;3.35;1.98;;;9.00;99.90;;;;;;7501590;19;20077;-74
2023/12/24 17:49:34;;;;;;;5.55;1.55;;;9.10;99.90;;;;;;7576278;19;20014;-76
2023/12/24 17:52:08;;;;;;;4.80;2.63;;;9.20;99.90;;;;;;7563574;19;20018;-74
2023/12/24 17:54:41;;;;;;;5.28;2.20;;;9.20;99.90;;;;;;7558606;19;20017;-74
2023/12/24 17:57:14;;;;;;;4.05;2.20;;;9.30;99.90;;;;;;7556579;19;20022;-74
2023/12/24 17:59:46;;;;;;;4.25;2.45;;;9.40;99.90;;;;;;7572942;19;20018;-75
2023/12/24 18:02:19;;;;;;;4.95;2.22;;;9.50;99.90;;;;;;7565766;19;20146;-76
2023/12/24 18:04:52;;;;;;;8.38;3.55;;;9.50;99.90;;;;;;7565272;19;20515;-75
2023/12/24 18:07:24;;;;;;;3.45;1.83;;;9.60;99.90;;;;;;7549032;19;20022;-75
2023/12/24 18:09:56;;;;;;;5.05;1.83;;;9.70;99.90;;;;;;7568445;19;20020;-76
2023/12/24 18:12:29;;;;;;;2.30;1.40;;;9.70;99.90;;;;;;7560828;19;20112;-76
2023/12/24 18:15:04;;;;;;;3.83;2.15;;;9.90;99.90;;;;;;7565982;19;20382;-75
2023/12/24 18:17:37;;;;;;;3.22;1.85;;;10.00;99.90;;;;;;7565215;19;20025;-76
2023/12/24 18:20:10;;;;;;;3.00;1.87;;;10.10;99.90;;;;;;7563054;19;20052;-79
2023/12/24 18:22:44;;;;;;;4.43;2.20;;;10.20;99.90;;;;;;7558129;19;20010;-78
2023/12/24 18:25:17;;;;;;;2.50;1.25;;;10.30;99.90;;;;;;7577948;19;21389;-79
2023/12/24 18:27:49;;;;;;;2.30;0.85;;;10.40;99.90;;;;;;7567427;19;20010;-78
2023/12/24 18:30:25;;;;;;;0.75;0.65;;;10.40;99.90;;;;;;7554094;19;20059;-78
2023/12/24 18:32:58;;;;;;;0.82;0.55;;;10.50;99.90;;;;;;7550432;19;20025;-82
2023/12/24 18:35:33;;;;;;;1.15;0.70;;;10.50;99.90;;;;;;7565103;19;20011;-80
2023/12/24 18:38:06;;;;;;;1.65;0.82;;;10.50;99.90;;;;;;7546583;19;20023;-79
2023/12/24 18:40:39;;;;;;;1.38;0.93;;;10.50;99.90;;;;;;7535081;19;21321;-78
2023/12/24 18:43:12;;;;;;;1.00;0.80;;;10.50;99.90;;;;;;7561601;19;20538;-79
2023/12/24 18:45:44;;;;;;;2.70;0.70;;;10.50;99.90;;;;;;7559603;19;20022;-80
2023/12/24 18:48:16;;;;;;;1.08;0.55;;;10.60;99.90;;;;;;7548209;19;20022;-79
2023/12/24 18:50:49;;;;;;;1.40;0.73;;;10.60;99.90;;;;;;7591014;19;21866;-79
2023/12/24 18:53:22;;;;;;;1.90;1.17;;;10.70;99.90;;;;;;7582483;19;20665;-80
2023/12/24 18:55:59;;;;;;;0.90;0.75;;;10.70;99.90;;;;;;7570814;19;20257;-79
2023/12/24 18:58:32;;;;;;;1.38;0.90;;;10.70;99.90;;;;;;7570961;19;20010;-80
2023/12/24 19:01:08;;;;;;;1.65;0.90;;;10.60;99.90;;;;;;7551903;19;20018;-79
2023/12/24 19:03:41;;;;;;;2.40;0.70;;;10.70;99.90;;;;;;7579858;19;20081;-81
2023/12/24 19:06:22;;;;;;;0.52;0.47;;;10.70;99.90;;;;;;7542401;19;20055;-75
2023/12/24 19:08:58;;;;;;;1.85;0.70;;;10.80;99.90;;;;;;7536219;19;21170;-73
2023/12/24 19:11:30;;;;;;;1.17;0.77;;;10.70;99.90;;;;;;7518874;19;20018;-78
2023/12/24 19:14:03;;;;;;;2.80;1.30;;;10.70;99.90;;;;;;7511675;19;20116;-76
2023/12/24 19:16:35;;;;;;;3.17;1.40;;;10.80;99.90;;;;;;7538825;19;20023;-76
2023/12/24 19:19:08;;;;;;;1.03;0.77;;;10.70;99.90;;;;;;7551862;19;20037;-77
2023/12/24 19:21:40;;;;;;;1.15;0.80;;;10.70;99.90;;;;;;7546626;19;20018;-76
2023/12/24 19:24:15;;;;;;;0.93;0.70;;;10.70;99.90;;;;;;7529799;19;20780;-76
2023/12/24 19:26:48;;;;;;;0.88;0.60;;;10.80;99.90;;;;;;7549692;19;20060;-78
2023/12/24 19:29:21;;;;;;;1.88;0.90;;;10.90;99.90;;;;;;7524586;19;20125;-76
2023/12/24 19:31:54;;;;;;;0.80;0.68;;;10.90;99.90;;;;;;7546776;19;20073;-77
2023/12/24 19:34:26;;;;;;;5.90;1.37;;;10.90;99.90;;;;;;7575930;19;20014;-77
2023/12/24 19:37:00;;;;;;;2.22;1.00;;;10.80;99.90;;;;;;7577442;19;20014;-77
2023/12/24 19:39:33;;;;;;;1.73;0.68;;;10.80;99.90;;;;;;7557945;19;20615;-76
2023/12/24 19:42:05;;;;;;;1.10;0.60;;;10.80;99.90;;;;;;7523716;19;20025;-77
2023/12/24 19:44:38;;;;;;;1.27;0.50;;;10.90;99.90;;;;;;7511572;19;20010;-77
2023/12/24 19:47:13;;;;;;;1.83;0.80;;;10.90;99.90;;;;;;7514859;19;20018;-77
2023/12/24 19:49:47;;;;;;;6.13;1.02;;;10.90;99.90;;;;;;7535651;19;20314;-75
2023/12/24 19:52:20;;;;;;;1.35;0.70;;;10.90;99.90;;;;;;7529015;19;20011;-77
2023/12/24 19:55:10;;;;;;;2.35;0.70;;;11.00;99.90;;;;;;7562689;19;20021;-77
2023/12/24 19:57:43;;;;;;;0.85;0.70;;;11.00;99.90;;;;;;7550640;19;20018;-77
2023/12/24 20:00:16;;;;;;;1.63;0.70;;;11.00;99.90;;;;;;7562608;19;20437;-76
2023/12/24 20:02:49;;;;;;;1.70;0.98;;;10.90;99.90;;;;;;7545820;19;20120;-77
2023/12/24 20:05:22;;;;;;;0.90;0.60;;;10.90;99.90;;;;;;7550765;19;20010;-77
2023/12/24 20:07:55;;;;;;;1.88;1.33;;;11.10;99.90;;;;;;7549305;19;20018;-76
2023/12/24 20:10:27;;;;;;;0.98;0.77;;;11.10;99.90;;;;;;7561327;19;20030;-77
2023/12/24 20:13:00;;;;;;;2.72;0.90;;;11.20;99.90;;;;;;7585802;19;20014;-76
2023/12/24 20:15:33;;;;;;;;;;;11.20;99.90;;;;;;7551209;19;20029;-77
2023/12/24 20:18:06;;;;;;;0.70;0.50;;;11.10;99.90;;;;;;7557770;19;19922;-76
2023/12/24 20:20:45;;;;;;;1.92;1.05;;;11.20;99.90;;;;;;7575354;19;20117;-76
2023/12/24 20:23:18;;;;;;;2.37;0.57;;;11.20;99.90;;;;;;7569243;19;20021;-77
2023/12/24 20:25:51;;;;;;;1.20;0.70;;;11.20;99.90;;;;;;7578473;19;20014;-76
2023/12/24 20:28:23;;;;;;;1.65;0.98;;;11.20;99.90;;;;;;7556023;19;20014;-77
2023/12/24 20:30:55;;;;;;;2.00;1.02;;;11.20;99.90;;;;;;7540174;19;20025;-76
2023/12/24 20:33:28;;;;;;;0.90;0.70;;;11.20;99.90;;;;;;7578180;19;20682;-78
2023/12/24 20:36:02;;;;;;;0.70;0.63;;;11.30;99.90;;;;;;7556931;19;20028;-77
2023/12/24 20:38:34;;;;;;;2.10;1.10;;;11.30;99.90;;;;;;7558016;19;20659;-76
2023/12/24 20:41:07;;;;;;;1.42;0.75;;;11.30;99.90;;;;;;7554740;19;23201;-77
2023/12/24 20:43:40;;;;;;;1.08;0.60;;;11.30;99.90;;;;;;7576448;19;20022;-77
2023/12/24 20:46:12;;;;;;;2.45;1.15;;;11.30;99.90;;;;;;7577102;19;20021;-77
2023/12/24 20:48:44;;;;;;;9.68;3.60;;;11.20;99.90;;;;;;7601994;19;20014;-76
2023/12/24 20:51:18;;;;;;;14.43;5.65;;;11.30;99.90;;;;;;7578673;19;22247;-76
2023/12/24 20:53:50;;;;;;;2.35;0.88;;;11.20;99.90;;;;;;7567984;19;20019;-76
2023/12/24 20:56:26;;;;;;;1.23;0.70;;;11.20;99.90;;;;;;7551293;19;20018;-76
2023/12/24 20:59:01;;;;;;;1.50;0.60;;;11.20;99.90;;;;;;7627317;19;20026;-77
2023/12/24 21:01:34;;;;;;;1.02;0.80;;;11.30;99.90;;;;;;7582068;19;20015;-77
2023/12/24 21:04:07;;;;;;;0.73;0.55;;;11.20;99.90;;;;;;7602408;19;20010;-76
2023/12/24 21:06:44;;;;;;;0.88;0.52;;;11.30;99.90;;;;;;7575192;19;20029;-78
2023/12/24 21:09:17;;;;;;;0.70;0.40;;;11.30;99.90;;;;;;7563096;19;20022;-78
2023/12/24 21:12:03;;;;;;;2.20;0.70;;;11.50;99.90;;;;;;7572320;19;20023;-78
2023/12/24 21:14:36;;;;;;;1.48;0.80;;;11.40;99.90;;;;;;7568485;19;20015;-77
2023/12/24 21:17:08;;;;;;;0.88;0.60;;;11.40;99.90;;;;;;7545781;19;20472;-76
2023/12/24 21:19:41;;;;;;;1.60;0.50;;;11.50;99.90;;;;;;7559501;19;20783;-76
2023/12/24 21:22:14;;;;;;;0.82;0.68;;;11.50;99.90;;;;;;7571537;19;20010;-77
2023/12/24 21:24:47;;;;;;;1.93;0.70;;;11.50;99.90;;;;;;7572308;19;20500;-77
2023/12/24 21:27:20;;;;;;;0.50;0.50;;;11.50;99.90;;;;;;7550969;19;20021;-78
2023/12/24 21:29:53;;;;;;;0.90;0.50;;;11.50;99.90;;;;;;7558112;19;20103;-76
2023/12/24 21:32:25;;;;;;;0.90;0.70;;;11.60;99.90;;;;;;7549214;19;20021;-76
2023/12/24 21:34:59;;;;;;;2.13;0.57;;;11.60;99.90;;;;;;7546099;19;20007;-75
2023/12/24 21:37:32;;;;;;;1.52;0.63;;;11.60;99.90;;;;;;7567709;19;21315;-77
2023/12/24 21:40:07;;;;;;;1.95;0.57;;;11.50;99.90;;;;;;7604567;19;20034;-77
2023/12/24 21:42:41;;;;;;;0.80;0.52;;;11.50;99.90;;;;;;7578093;19;20050;-76
2023/12/24 21:45:13;;;;;;;0.95;0.68;;;11.50;99.90;;;;;;7567893;19;20021;-77
2023/12/24 21:47:46;;;;;;;2.17;0.90;;;11.50;99.90;;;;;;7570972;19;20017;-76
2023/12/24 21:50:18;;;;;;;5.63;0.95;;;11.60;99.90;;;;;;7551944;19;20098;-77
2023/12/24 21:52:51;;;;;;;0.67;0.53;;;11.60;99.90;;;;;;7561050;19;20003;-76
2023/12/24 21:55:24;;;;;;;1.40;0.75;;;11.60;99.90;;;;;;7542483;19;20267;-76
2023/12/24 21:57:56;;;;;;;1.20;0.60;;;11.60;99.90;;;;;;7560671;19;20030;-77
2023/12/24 22:00:30;;;;;;;1.13;0.70;;;11.50;99.90;;;;;;7536258;19;20013;-78
2023/12/24 22:03:19;;;;;;;1.02;0.60;;;11.70;99.90;;;;;;7518851;19;20006;-77
2023/12/24 22:06:03;;;;;;;1.42;0.40;;;11.60;99.90;;;;;;7529586;19;20022;-76
2023/12/24 22:08:36;;;;;;;0.82;0.50;;;11.70;99.90;;;;;;7525583;19;20107;-76
